Time,TemperatureF,DewpointF,PressureIn,WindDirection,WindDirectionDegrees,WindSpeedMPH,WindSpeedGustMPH,Humidity,HourlyPrecipIn,Conditions,Clouds,dailyrainin,SolarRadiationWatts/m^2,SoftwareType,DateUTC
2013-06-26 00:02:00,71.1,66.4,29.85,NE,36,7.0,7.0,85,0.00,,,0.00,0,Wunderground v.1.15,2013-06-25 21:02:00,
2013-06-26 00:22:00,71.0,66.3,29.84,NNE,13,10.0,12.0,85,0.00,,,0.00,0,Wunderground v.1.15,2013-06-25 21:22:00,
2013-06-26 00:32:00,70.9,66.8,29.85,NE,40,11.0,11.0,87,0.00,,,0.00,0,Wunderground v.1.15,2013-06-25 21:32:00,
2013-06-26 00:42:00,70.5,66.8,29.84,NNE,15,10.0,10.0,88,0.00,,,0.00,0,Wunderground v.1.15,2013-06-25 21:42:00,
2013-06-26 00:52:00,70.4,66.7,29.84,NNE,27,9.0,11.0,88,0.00,,,0.00,0,Wunderground v.1.15,2013-06-25 21:52:00,
2013-06-26 01:02:00,70.3,66.6,29.84,NE,41,9.0,10.0,88,0.00,,,0.00,0,Wunderground v.1.15,2013-06-25 22:02:00,
2013-06-26 01:12:00,70.3,66.6,29.85,North,360,9.0,11.0,88,0.00,,,0.00,0,Wunderground v.1.15,2013-06-25 22:12:00,
2013-06-26 01:22:00,70.4,66.7,29.85,NNE,24,10.0,10.0,88,0.00,,,0.00,0,Wunderground v.1.15,2013-06-25 22:22:00,
2013-06-26 01:32:00,70.4,66.7,29.85,North,360,10.0,13.0,88,0.00,,,0.00,0,Wunderground v.1.15,2013-06-25 22:32:00,
2013-06-26 01:42:00,70.4,66.7,29.85,North,11,10.0,10.0,88,0.00,,,0.00,0,Wunderground v.1.15,2013-06-25 22:42:00,
2013-06-26 01:52:00,70.3,66.6,29.84,NNE,13,9.0,9.0,88,0.00,,,0.00,0,Wunderground v.1.15,2013-06-25 22:52:00,
2013-06-26 02:02:00,70.3,66.6,29.84,NNE,26,11.0,14.0,88,0.00,,,0.00,0,Wunderground v.1.15,2013-06-25 23:02:00,
2013-06-26 02:12:00,70.4,66.7,29.84,NNE,32,12.0,16.0,88,0.00,,,0.00,0,Wunderground v.1.15,2013-06-25 23:12:00,
2013-06-26 02:22:00,70.3,66.6,29.83,NE,36,12.0,12.0,88,0.00,,,0.00,0,Wunderground v.1.15,2013-06-25 23:22:00,
2013-06-26 02:42:00,70.2,66.5,29.84,North,355,10.0,11.0,88,0.00,,,0.00,0,Wunderground v.1.15,2013-06-25 23:42:00,
2013-06-26 03:02:00,70.1,66.4,29.84,NNE,23,9.0,12.0,88,0.00,,,0.00,0,Wunderground v.1.15,2013-06-26 00:02:00,
2013-06-26 03:12:00,70.1,66.4,29.85,NNE,24,9.0,9.0,88,0.00,,,0.00,0,Wunderground v.1.15,2013-06-26 00:12:00,
2013-06-26 03:22:00,70.2,66.5,29.85,ENE,69,9.0,9.0,88,0.00,,,0.00,0,Wunderground v.1.15,2013-06-26 00:22:00,
2013-06-26 03:32:00,70.0,66.3,29.85,NNE,28,6.0,7.0,88,0.00,,,0.00,0,Wunderground v.1.15,2013-06-26 00:32:00,
2013-06-26 03:42:00,70.0,66.3,29.85,NNE,24,6.0,7.0,88,0.00,,,0.00,0,Wunderground v.1.15,2013-06-26 00:42:00,
2013-06-26 03:52:00,70.0,66.3,29.85,NNE,30,7.0,8.0,88,0.00,,,0.00,0,Wunderground v.1.15,2013-06-26 00:52:00,
2013-06-26 04:02:00,70.0,66.3,29.85,NNW,348,8.0,8.0,88,0.00,,,0.00,0,Wunderground v.1.15,2013-06-26 01:02:00,
2013-06-26 04:12:00,70.0,66.3,29.85,NNW,346,7.0,7.0,88,0.00,,,0.00,0,Wunderground v.1.15,2013-06-26 01:12:00,
2013-06-26 04:22:00,70.0,66.3,29.85,NE,42,7.0,7.0,88,0.00,,,0.00,0,Wunderground v.1.15,2013-06-26 01:22:00,
2013-06-26 04:32:00,70.1,66.4,29.86,NNE,30,7.0,7.0,88,0.00,,,0.00,0,Wunderground v.1.15,2013-06-26 01:32:00,
2013-06-26 04:42:00,70.1,66.0,29.86,North,9,7.0,8.0,87,0.00,,,0.00,0,Wunderground v.1.15,2013-06-26 01:42:00,
2013-06-26 04:52:00,70.1,66.0,29.86,NNE,32,7.0,8.0,87,0.00,,,0.00,0,Wunderground v.1.15,2013-06-26 01:52:00,
2013-06-26 05:02:00,70.0,66.0,29.86,NNE,12,5.0,5.0,87,0.00,,,0.00,0,Wunderground v.1.15,2013-06-26 02:02:00,
2013-06-26 05:12:00,70.0,66.0,29.86,NNE,25,7.0,9.0,87,0.00,,,0.00,0,Wunderground v.1.15,2013-06-26 02:12:00,
2013-06-26 05:22:00,70.1,66.0,29.87,NE,35,9.0,9.0,87,0.00,,,0.00,0,Wunderground v.1.15,2013-06-26 02:22:00,
2013-06-26 05:32:00,70.2,66.1,29.87,NNE,15,10.0,10.0,87,0.00,,,0.00,0,Wunderground v.1.15,2013-06-26 02:32:00,
2013-06-26 05:42:00,70.3,66.6,29.87,NNE,24,10.0,11.0,88,0.00,,,0.00,9,Wunderground v.1.15,2013-06-26 02:42:00,
2013-06-26 05:52:00,70.5,66.4,29.87,NNE,13,11.0,12.0,87,0.00,,,0.00,16,Wunderground v.1.15,2013-06-26 02:52:00,
2013-06-26 06:02:00,70.8,66.4,29.87,NNE,28,10.0,11.0,86,0.00,,,0.00,25,Wunderground v.1.15,2013-06-26 03:02:00,
2013-06-26 06:12:00,71.1,66.7,29.87,NE,45,11.0,11.0,86,0.00,,,0.00,37,Wunderground v.1.15,2013-06-26 03:12:00,
2013-06-26 06:22:00,71.4,66.3,29.87,NE,40,12.0,12.0,84,0.00,,,0.00,54,Wunderground v.1.15,2013-06-26 03:22:00,
2013-06-26 06:32:00,71.7,66.3,29.87,NE,44,12.0,12.0,83,0.00,,,0.00,74,Wunderground v.1.15,2013-06-26 03:32:00,
2013-06-26 06:42:00,72.2,66.4,29.87,North,11,11.0,15.0,82,0.00,,,0.00,98,Wunderground v.1.15,2013-06-26 03:42:00,
2013-06-26 06:52:00,72.4,66.2,29.87,NNE,28,13.0,14.0,81,0.00,,,0.00,127,Wunderground v.1.15,2013-06-26 03:52:00,
2013-06-26 07:02:00,72.7,66.2,29.87,NNE,24,14.0,15.0,80,0.00,,,0.00,153,Wunderground v.1.15,2013-06-26 04:02:00,
2013-06-26 07:22:00,73.4,65.7,29.87,NNE,23,13.0,13.0,77,0.00,,,0.00,209,Wunderground v.1.15,2013-06-26 04:22:00,
2013-06-26 07:32:00,73.7,66.4,29.87,NNE,19,14.0,18.0,78,0.00,,,0.00,236,Wunderground v.1.15,2013-06-26 04:32:00,
2013-06-26 07:42:00,73.9,66.2,29.87,NNE,18,15.0,21.0,77,0.00,,,0.00,264,Wunderground v.1.15,2013-06-26 04:42:00,
2013-06-26 07:52:00,74.2,66.1,29.87,NNE,33,15.0,18.0,76,0.00,,,0.00,294,Wunderground v.1.15,2013-06-26 04:52:00,
2013-06-26 08:02:00,74.4,66.3,29.88,NNE,13,14.0,18.0,76,0.00,,,0.00,323,Wunderground v.1.15,2013-06-26 05:02:00,
2013-06-26 08:12:00,74.7,66.6,29.88,NNE,30,15.0,15.0,76,0.00,,,0.00,350,Wunderground v.1.15,2013-06-26 05:12:00,
2013-06-26 08:22:00,74.8,66.3,29.88,NNE,17,16.0,20.0,75,0.00,,,0.00,380,Wunderground v.1.15,2013-06-26 05:22:00,
2013-06-26 08:42:00,75.3,66.4,29.88,East,83,14.0,14.0,74,0.00,,,0.00,432,Wunderground v.1.15,2013-06-26 05:42:00,
2013-06-26 08:52:00,75.4,66.1,29.88,NNE,28,15.0,15.0,73,0.00,,,0.00,462,Wunderground v.1.15,2013-06-26 05:52:00,
2013-06-26 09:02:00,76.1,66.0,29.88,North,360,14.0,14.0,71,0.00,,,0.00,480,Wunderground v.1.15,2013-06-26 06:02:00,
2013-06-26 09:12:00,76.5,66.4,29.88,NE,47,12.0,12.0,71,0.00,,,0.00,510,Wunderground v.1.15,2013-06-26 06:12:00,
2013-06-26 09:22:00,76.6,66.1,29.89,NNE,13,14.0,25.0,70,0.00,,,0.00,541,Wunderground v.1.15,2013-06-26 06:22:00,
2013-06-26 09:32:00,76.9,65.1,29.88,North,5,15.0,25.0,67,0.00,,,0.00,568,Wunderground v.1.15,2013-06-26 06:32:00,
2013-06-26 09:42:00,76.9,65.5,29.88,North,10,17.0,20.0,68,0.00,,,0.00,596,Wunderground v.1.15,2013-06-26 06:42:00,
2013-06-26 09:52:00,76.9,65.1,29.88,North,355,17.0,17.0,67,0.00,,,0.00,621,Wunderground v.1.15,2013-06-26 06:52:00,
2013-06-26 10:02:00,77.2,65.0,29.88,NE,36,18.0,18.0,66,0.00,,,0.00,643,Wunderground v.1.15,2013-06-26 07:02:00,
2013-06-26 10:12:00,77.6,64.5,29.88,NNE,20,19.0,28.0,64,0.00,,,0.00,666,Wunderground v.1.15,2013-06-26 07:12:00,
2013-06-26 10:22:00,77.6,64.5,29.88,NNW,346,19.0,19.0,64,0.00,,,0.00,689,Wunderground v.1.15,2013-06-26 07:22:00,
2013-06-26 10:32:00,78.2,64.1,29.89,NNE,24,17.0,17.0,62,0.00,,,0.00,710,Wunderground v.1.15,2013-06-26 07:32:00,
2013-06-26 10:42:00,78.0,63.9,29.89,NNE,31,17.0,17.0,62,0.00,,,0.00,733,Wunderground v.1.15,2013-06-26 07:42:00,
2013-06-26 11:02:00,78.0,63.5,29.89,NNE,17,20.0,20.0,61,0.00,,,0.00,772,Wunderground v.1.15,2013-06-26 08:02:00,
2013-06-26 11:12:00,78.3,63.3,29.88,NNE,22,21.0,21.0,60,0.00,,,0.00,791,Wunderground v.1.15,2013-06-26 08:12:00,
2013-06-26 11:22:00,78.6,63.6,29.89,NNE,29,16.0,16.0,60,0.00,,,0.00,807,Wunderground v.1.15,2013-06-26 08:22:00,
2013-06-26 11:32:00,78.7,63.2,29.89,North,5,21.0,23.0,59,0.00,,,0.00,824,Wunderground v.1.15,2013-06-26 08:32:00,
2013-06-26 11:42:00,78.2,63.6,29.90,NE,34,22.0,22.0,61,0.00,,,0.00,835,Wunderground v.1.15,2013-06-26 08:42:00,
2013-06-26 11:52:00,78.1,62.6,29.89,NE,34,22.0,22.0,59,0.00,,,0.00,847,Wunderground v.1.15,2013-06-26 08:52:00,
2013-06-26 12:02:00,78.6,62.6,29.90,North,5,22.0,22.0,58,0.00,,,0.00,860,Wunderground v.1.15,2013-06-26 09:02:00,
2013-06-26 12:12:00,78.2,63.2,29.90,NNE,32,20.0,20.0,60,0.00,,,0.00,865,Wunderground v.1.15,2013-06-26 09:12:00,
2013-06-26 12:22:00,79.4,62.8,29.90,NE,34,18.0,24.0,57,0.00,,,0.00,879,Wunderground v.1.15,2013-06-26 09:22:00,
2013-06-26 12:32:00,79.1,63.5,29.90,NNE,12,18.0,29.0,59,0.00,,,0.00,881,Wunderground v.1.15,2013-06-26 09:32:00,
2013-06-26 12:42:00,78.6,63.1,29.90,NNE,27,20.0,20.0,59,0.00,,,0.00,886,Wunderground v.1.15,2013-06-26 09:42:00,
2013-06-26 12:52:00,78.9,62.9,29.90,NE,53,22.0,22.0,58,0.00,,,0.00,895,Wunderground v.1.15,2013-06-26 09:52:00,
2013-06-26 13:02:00,79.3,63.2,29.90,NNE,32,18.0,18.0,58,0.00,,,0.00,895,Wunderground v.1.15,2013-06-26 10:02:00,
2013-06-26 13:12:00,79.0,63.0,29.90,NNE,28,19.0,19.0,58,0.00,,,0.00,888,Wunderground v.1.15,2013-06-26 10:12:00,
2013-06-26 13:22:00,79.5,62.9,29.90,NNE,29,17.0,19.0,57,0.00,,,0.00,888,Wunderground v.1.15,2013-06-26 10:22:00,
2013-06-26 13:32:00,78.4,62.9,29.90,NNE,28,20.0,21.0,59,0.00,,,0.00,891,Wunderground v.1.15,2013-06-26 10:32:00,
2013-06-26 13:42:00,79.6,62.5,29.90,NE,35,17.0,18.0,56,0.00,,,0.00,886,Wunderground v.1.15,2013-06-26 10:42:00,
2013-06-26 13:52:00,79.3,62.2,29.90,NNE,19,20.0,23.0,56,0.00,,,0.00,881,Wunderground v.1.15,2013-06-26 10:52:00,
2013-06-26 14:02:00,79.0,62.5,29.90,NNE,30,20.0,20.0,57,0.00,,,0.00,872,Wunderground v.1.15,2013-06-26 11:02:00,
2013-06-26 14:12:00,79.4,62.8,29.91,ENE,59,18.0,20.0,57,0.00,,,0.00,861,Wunderground v.1.15,2013-06-26 11:12:00,
2013-06-26 14:22:00,79.4,62.8,29.90,NNW,347,18.0,19.0,57,0.00,,,0.00,844,Wunderground v.1.15,2013-06-26 11:22:00,
2013-06-26 14:32:00,78.6,60.0,29.90,NE,38,19.0,27.0,53,0.00,,,0.00,838,Wunderground v.1.15,2013-06-26 11:32:00,
2013-06-26 14:42:00,79.0,60.4,29.90,ENE,58,20.0,21.0,53,0.00,,,0.00,828,Wunderground v.1.15,2013-06-26 11:42:00,
2013-06-26 14:52:00,79.5,62.9,29.90,NNE,23,17.0,18.0,57,0.00,,,0.00,810,Wunderground v.1.15,2013-06-26 11:52:00,
2013-06-26 15:02:00,79.3,61.2,29.90,NE,55,19.0,19.0,54,0.00,,,0.00,795,Wunderground v.1.15,2013-06-26 12:02:00,
2013-06-26 15:12:00,78.4,60.4,29.90,NE,54,20.0,32.0,54,0.00,,,0.00,786,Wunderground v.1.15,2013-06-26 12:12:00,
2013-06-26 15:22:00,78.7,61.2,29.90,NNE,23,18.0,30.0,55,0.00,,,0.00,768,Wunderground v.1.15,2013-06-26 12:22:00,
2013-06-26 15:32:00,78.2,59.7,29.90,ENE,72,21.0,24.0,53,0.00,,,0.00,744,Wunderground v.1.15,2013-06-26 12:32:00,
2013-06-26 15:42:00,79.6,61.5,29.90,NNE,17,15.0,15.0,54,0.00,,,0.00,722,Wunderground v.1.15,2013-06-26 12:42:00,
2013-06-26 15:52:00,79.7,62.1,29.90,NNE,14,17.0,24.0,55,0.00,,,0.00,708,Wunderground v.1.15,2013-06-26 12:52:00,
2013-06-26 16:02:00,80.1,62.0,29.90,NNE,16,16.0,16.0,54,0.00,,,0.00,686,Wunderground v.1.15,2013-06-26 13:02:00,
2013-06-26 16:12:00,79.9,61.2,29.90,NNE,24,18.0,18.0,53,0.00,,,0.00,664,Wunderground v.1.15,2013-06-26 13:12:00,
2013-06-26 16:22:00,79.4,60.2,29.90,SE,132,18.0,18.0,52,0.00,,,0.00,640,Wunderground v.1.15,2013-06-26 13:22:00,
2013-06-26 16:32:00,78.5,59.4,29.90,ENE,76,20.0,29.0,52,0.00,,,0.00,613,Wunderground v.1.15,2013-06-26 13:32:00,
2013-06-26 16:42:00,78.8,61.3,29.90,NNE,28,16.0,16.0,55,0.00,,,0.00,591,Wunderground v.1.15,2013-06-26 13:42:00,
2013-06-26 16:52:00,79.5,61.4,29.90,NW,317,15.0,15.0,54,0.00,,,0.00,559,Wunderground v.1.15,2013-06-26 13:52:00,
2013-06-26 17:02:00,78.3,57.6,29.89,NE,50,19.0,32.0,49,0.00,,,0.00,536,Wunderground v.1.15,2013-06-26 14:02:00,
2013-06-26 17:12:00,78.3,57.6,29.89,NE,39,19.0,19.0,49,0.00,,,0.00,512,Wunderground v.1.15,2013-06-26 14:12:00,
2013-06-26 17:22:00,77.9,58.3,29.89,NE,36,20.0,27.0,51,0.00,,,0.00,487,Wunderground v.1.15,2013-06-26 14:22:00,
2013-06-26 17:32:00,78.1,59.0,29.89,NNE,28,19.0,19.0,52,0.00,,,0.00,457,Wunderground v.1.15,2013-06-26 14:32:00,
2013-06-26 17:42:00,78.2,60.7,29.89,NNE,30,16.0,20.0,55,0.00,,,0.00,429,Wunderground v.1.15,2013-06-26 14:42:00,
2013-06-26 17:52:00,78.3,61.3,29.89,NNE,24,15.0,15.0,56,0.00,,,0.00,403,Wunderground v.1.15,2013-06-26 14:52:00,
2013-06-26 18:02:00,77.7,61.3,29.89,NNE,29,15.0,16.0,57,0.00,,,0.00,371,Wunderground v.1.15,2013-06-26 15:02:00,
2013-06-26 18:12:00,77.6,62.6,29.89,ENE,61,16.0,17.0,60,0.00,,,0.00,339,Wunderground v.1.15,2013-06-26 15:12:00,
2013-06-26 18:22:00,77.8,62.8,29.89,ENE,67,13.0,13.0,60,0.00,,,0.00,308,Wunderground v.1.15,2013-06-26 15:22:00,
2013-06-26 18:32:00,77.2,62.7,29.90,NNW,329,15.0,21.0,61,0.00,,,0.00,272,Wunderground v.1.15,2013-06-26 15:32:00,
2013-06-26 18:42:00,76.9,63.8,29.90,NE,44,17.0,20.0,64,0.00,,,0.00,253,Wunderground v.1.15,2013-06-26 15:42:00,
2013-06-26 18:52:00,76.6,64.4,29.89,NNE,20,15.0,21.0,66,0.00,,,0.00,221,Wunderground v.1.15,2013-06-26 15:52:00,
2013-06-26 19:02:00,76.2,64.9,29.90,NNE,22,15.0,15.0,68,0.00,,,0.00,193,Wunderground v.1.15,2013-06-26 16:02:00,
2013-06-26 19:12:00,76.0,64.7,29.90,NNE,26,14.0,16.0,68,0.00,,,0.00,125,Wunderground v.1.15,2013-06-26 16:12:00,
2013-06-26 19:22:00,75.6,64.7,29.90,NNE,15,16.0,20.0,69,0.00,,,0.00,132,Wunderground v.1.15,2013-06-26 16:22:00,
2013-06-26 19:42:00,74.9,64.5,29.91,NE,43,13.0,13.0,70,0.00,,,0.00,74,Wunderground v.1.15,2013-06-26 16:42:00,
2013-06-26 19:52:00,74.8,64.8,29.91,NE,44,10.0,10.0,71,0.00,,,0.00,53,Wunderground v.1.15,2013-06-26 16:52:00,
2013-06-26 20:02:00,74.5,64.5,29.91,ENE,63,13.0,13.0,71,0.00,,,0.00,35,Wunderground v.1.15,2013-06-26 17:02:00,
2013-06-26 20:12:00,74.1,64.5,29.91,NE,34,15.0,15.0,72,0.00,,,0.00,21,Wunderground v.1.15,2013-06-26 17:12:00,
2013-06-26 20:22:00,73.9,64.7,29.91,NNE,15,12.0,12.0,73,0.00,,,0.00,14,Wunderground v.1.15,2013-06-26 17:22:00,
2013-06-26 20:32:00,73.7,64.9,29.91,NNE,31,11.0,11.0,74,0.00,,,0.00,9,Wunderground v.1.15,2013-06-26 17:32:00,
2013-06-26 20:42:00,73.4,65.0,29.91,NNE,15,13.0,13.0,75,0.00,,,0.00,0,Wunderground v.1.15,2013-06-26 17:42:00,
2013-06-26 21:02:00,72.9,65.6,29.92,NNE,12,10.0,10.0,78,0.00,,,0.00,0,Wunderground v.1.15,2013-06-26 18:02:00,
2013-06-26 21:12:00,72.8,65.9,29.92,North,355,11.0,11.0,79,0.00,,,0.00,0,Wunderground v.1.15,2013-06-26 18:12:00,
2013-06-26 21:22:00,72.6,65.7,29.92,NNE,21,11.0,15.0,79,0.00,,,0.00,0,Wunderground v.1.15,2013-06-26 18:22:00,
2013-06-26 21:32:00,72.6,66.1,29.92,NNE,29,9.0,10.0,80,0.00,,,0.00,0,Wunderground v.1.15,2013-06-26 18:32:00,
2013-06-26 21:42:00,72.4,65.9,29.92,North,360,11.0,11.0,80,0.00,,,0.00,0,Wunderground v.1.15,2013-06-26 18:42:00,
2013-06-26 21:52:00,72.3,66.1,29.93,NE,34,10.0,10.0,81,0.00,,,0.00,0,Wunderground v.1.15,2013-06-26 18:52:00,
2013-06-26 22:02:00,72.2,66.0,29.93,NE,40,10.0,10.0,81,0.00,,,0.00,0,Wunderground v.1.15,2013-06-26 19:02:00,
2013-06-26 22:12:00,72.1,65.9,29.93,NNE,15,8.0,11.0,81,0.00,,,0.00,0,Wunderground v.1.15,2013-06-26 19:12:00,
2013-06-26 22:22:00,72.0,66.2,29.93,North,5,9.0,9.0,82,0.00,,,0.00,0,Wunderground v.1.15,2013-06-26 19:22:00,
2013-06-26 22:32:00,71.9,66.1,29.93,North,5,10.0,10.0,82,0.00,,,0.00,0,Wunderground v.1.15,2013-06-26 19:32:00,
2013-06-26 22:42:00,71.8,66.4,29.93,NNE,17,10.0,12.0,83,0.00,,,0.00,0,Wunderground v.1.15,2013-06-26 19:42:00,
2013-06-26 22:52:00,71.7,66.6,29.93,NE,36,10.0,10.0,84,0.00,,,0.00,0,Wunderground v.1.15,2013-06-26 19:52:00,
2013-06-26 23:02:00,71.5,66.4,29.93,NNE,32,10.0,10.0,84,0.00,,,0.00,0,Wunderground v.1.15,2013-06-26 20:02:00,
2013-06-26 23:12:00,71.5,66.4,29.93,NE,45,10.0,10.0,84,0.00,,,0.00,0,Wunderground v.1.15,2013-06-26 20:12:00,
2013-06-26 23:32:00,71.3,66.6,29.93,NNE,22,10.0,11.0,85,0.00,,,0.00,0,Wunderground v.1.15,2013-06-26 20:32:00,
2013-06-26 23:42:00,71.3,66.6,29.93,North,9,10.0,12.0,85,0.00,,,0.00,0,Wunderground v.1.15,2013-06-26 20:42:00,
2013-06-26 23:52:00,71.2,66.8,29.94,NNE,15,11.0,12.0,86,0.00,,,0.00,0,Wunderground v.1.15,2013-06-26 20:52:00,